Date,TemperatureHighF,TemperatureAvgF,TemperatureLowF,DewpointHighF,DewpointAvgF,DewpointLowF,HumidityHigh,HumidityAvg,HumidityLow,PressureMaxIn,PressureMinIn,WindSpeedMaxMPH,WindSpeedAvgMPH,GustSpeedMaxMPH,PrecipitationSumIn
2013-2-1,64.1,53.9,46.1,46.0,39.0,25.9,84,59,24,30.46,30.22,16,6,16,1.28
2013-2-2,67.9,55.9,44.7,49.1,42.8,-24.4,77,63,33,30.31,30.17,14,6,14,0.00
2013-2-3,67.0,54.9,43.8,56.5,48.8,42.1,95,80,65,30.19,30.10,16,4,16,0.00
2013-2-4,67.8,54.8,45.7,51.1,45.5,35.4,95,74,33,30.14,30.05,14,3,14,0.00
2013-2-5,74.3,60.2,46.8,58.2,49.7,39.4,91,70,45,30.09,30.00,16,3,16,0.00
2013-2-6,76.4,66.1,59.0,62.0,57.7,54.6,88,75,58,30.09,30.01,14,4,14,0.00
2013-2-7,80.3,68.9,62.5,67.1,63.6,58.5,97,84,55,30.04,29.86,26,7,26,0.02
2013-2-8,69.8,63.8,57.6,67.1,60.8,56.1,97,90,77,30.08,29.89,15,6,15,0.77
2013-2-9,76.6,62.8,54.9,59.7,55.8,52.4,97,79,52,30.19,30.07,14,6,14,1.21
2013-2-10,79.5,69.1,60.0,64.1,60.1,54.6,87,74,54,30.23,30.12,25,9,25,0.00
2013-2-11,80.9,71.3,64.6,68.0,64.8,61.3,94,81,62,30.20,30.07,21,7,21,0.00
2013-2-12,80.8,72.6,66.2,71.2,68.4,65.0,97,87,71,30.08,29.93,23,5,23,0.00
2013-2-13,81.4,70.4,59.4,73.5,67.6,55.8,98,91,77,29.98,29.83,20,6,20,1.38
2013-2-14,63.9,60.4,57.8,61.5,59.0,57.0,98,95,86,30.05,29.92,16,3,16,0.18
2013-2-15,63.7,57.1,53.4,57.5,53.8,51.3,98,89,73,30.08,29.96,12,4,12,0.06
2013-2-16,66.3,56.7,49.6,53.7,47.4,34.8,93,72,46,30.15,29.95,30,11,30,0.00
2013-2-17,52.6,45.2,38.4,36.7,27.9,19.5,83,52,40,30.34,30.14,24,8,24,0.00
2013-2-18,67.8,52.8,35.8,50.2,38.4,24.6,84,61,33,30.36,30.19,20,6,20,1.80
2013-2-19,77.5,63.4,52.1,61.6,55.7,48.4,95,78,50,30.21,30.08,20,5,20,0.04
2013-2-20,72.5,63.2,57.1,63.1,59.2,53.1,98,87,70,30.21,30.02,16,4,16,0.01
2013-2-21,79.0,67.5,56.9,67.3,61.4,53.1,93,82,65,30.21,29.97,15,5,15,1.02
2013-2-22,83.2,71.0,63.6,69.8,66.2,62.3,97,86,63,30.06,29.98,16,5,16,0.00
2013-2-23,80.2,72.4,66.6,72.9,69.7,65.5,98,91,78,29.99,29.89,20,6,20,0.00
2013-2-24,74.8,70.2,68.2,71.7,69.1,67.3,99,96,88,29.95,29.86,14,3,14,0.04
2013-2-25,82.8,73.9,68.1,71.4,69.3,65.8,99,86,59,29.89,29.75,17,7,17,0.00
2013-2-26,75.0,70.6,66.3,72.1,67.3,61.8,97,89,74,29.88,29.68,27,7,27,0.97
2013-2-27,67.2,63.6,59.2,62.6,56.8,52.8,87,79,68,29.99,29.87,16,8,16,0.80
2013-2-28,69.8,63.4,59.3,58.3,54.2,-19.0,83,72,63,30.00,29.91,16,8,16,1.55